Time;durP1;ratioP1;P1;durP2;ratioP2;P2;SDS_P1;SDS_P2;PMS_P1;PMS_P2;Temp;Humidity;BMP_temperature;BMP_pressure;BME280_temperature;BME280_humidity;BME280_pressure;Samples;Min_cycle;Max_cycle;Signal;HPM_P1;HPM_P2
2023/05/02 00:02:16;;;;;;;4.70;3.50;;;23.40;58.50;;;;;;222847;1263;22639;-60
2023/05/02 00:07:20;;;;;;;5.50;3.80;;;23.40;58.20;;;;;;222750;1266;26489;-61
2023/05/02 00:12:25;;;;;;;3.70;3.40;;;23.40;58.30;;;;;;222520;1263;22499;-60
2023/05/02 00:17:30;;;;;;;4.20;3.40;;;23.40;58.30;;;;;;222701;1266;22522;-59
2023/05/02 00:22:34;;;;;;;4.00;3.30;;;23.30;58.60;;;;;;222643;1246;22642;-59
2023/05/02 00:27:39;;;;;;;3.60;3.30;;;23.30;58.20;;;;;;222827;1263;24363;-60
2023/05/02 00:32:43;;;;;;;3.20;2.90;;;23.30;58.30;;;;;;222361;1269;22522;-60
2023/05/02 00:37:48;;;;;;;3.70;3.10;;;23.30;58.40;;;;;;222494;1253;26618;-60
2023/05/02 00:42:52;;;;;;;6.20;3.60;;;23.30;58.30;;;;;;222693;1269;24447;-60
2023/05/02 00:47:56;;;;;;;3.20;3.00;;;23.30;58.50;;;;;;222447;1268;22512;-58
2023/05/02 00:53:03;;;;;;;5.20;3.70;;;23.20;58.60;;;;;;222680;1266;24183;-60
2023/05/02 00:58:12;;;;;;;3.30;2.90;;;23.20;58.70;;;;;;222687;1269;25363;-60
2023/05/02 01:03:28;;;;;;;3.60;3.30;;;23.20;58.50;;;;;;222813;1256;26010;-59
2023/05/02 01:08:46;;;;;;;3.10;2.80;;;23.20;58.60;;;;;;221561;1262;24238;-58
2023/05/02 01:13:53;;;;;;;3.80;3.40;;;23.20;59.20;;;;;;221536;1275;22579;-58
2023/05/02 01:19:04;;;;;;;3.60;3.30;;;23.20;58.90;;;;;;221393;1273;22608;-60
2023/05/02 01:24:24;;;;;;;3.20;3.00;;;23.10;58.80;;;;;;221724;1269;25455;-60
2023/05/02 01:29:30;;;;;;;3.80;3.50;;;23.10;58.60;;;;;;222702;1269;22511;-59
2023/05/02 01:34:39;;;;;;;4.40;3.00;;;23.10;58.90;;;;;;222668;1269;22525;-59
2023/05/02 01:39:45;;;;;;;3.60;3.00;;;23.10;58.90;;;;;;222906;1266;23139;-59
2023/05/02 01:44:52;;;;;;;3.80;3.50;;;23.10;58.70;;;;;;222641;1267;22530;-59
2023/05/02 01:49:57;;;;;;;3.70;3.30;;;23.10;58.70;;;;;;222716;1269;24320;-59
2023/05/02 01:55:05;;;;;;;3.30;3.00;;;23.10;58.70;;;;;;222612;1267;25370;-61
2023/05/02 02:00:11;;;;;;;3.40;3.20;;;23.00;58.70;;;;;;222595;1266;22512;-59
2023/05/02 02:05:18;;;;;;;3.90;3.30;;;23.00;59.00;;;;;;222600;1266;25453;-62
2023/05/02 02:10:27;;;;;;;3.60;3.30;;;23.00;58.70;;;;;;222535;1266;251326;-59
2023/05/02 02:15:36;;;;;;;3.70;3.20;;;23.20;59.10;;;;;;222555;1269;24189;-60
2023/05/02 02:20:44;;;;;;;3.30;2.80;;;23.50;58.30;;;;;;222448;1269;24183;-59
2023/05/02 02:25:51;;;;;;;3.70;3.00;;;23.70;58.00;;;;;;223017;1266;22563;-60
2023/05/02 02:30:55;;;;;;;3.40;3.10;;;23.90;57.50;;;;;;222532;1269;22524;-59
2023/05/02 02:36:41;;;;;;;2.70;2.50;;;23.90;57.40;;;;;;222320;1269;22515;-59
2023/05/02 02:42:06;;;;;;;3.00;2.80;;;24.00;57.10;;;;;;221097;1271;22613;-60
2023/05/02 02:47:22;;;;;;;3.30;3.00;;;24.10;56.70;;;;;;221306;1275;23690;-58
2023/05/02 02:52:39;;;;;;;3.80;3.10;;;24.20;56.40;;;;;;221102;1276;22524;-60
2023/05/02 02:58:40;;;;;;;3.00;2.70;;;24.30;56.50;;;;;;221156;1278;22535;-58
2023/05/02 03:03:47;;;;;;;2.90;2.70;;;24.40;55.80;;;;;;220087;1282;22532;-60
2023/05/02 03:08:51;;;;;;;2.90;2.70;;;24.50;55.80;;;;;;220917;1264;22507;-60
2023/05/02 03:13:59;;;;;;;4.00;2.80;;;24.60;55.30;;;;;;221156;1276;25379;-59
2023/05/02 03:19:04;;;;;;;3.10;2.60;;;24.70;55.10;;;;;;222163;1254;22515;-60
2023/05/02 03:24:09;;;;;;;3.10;2.80;;;24.80;55.10;;;;;;222754;1267;24218;-62
2023/05/02 03:29:14;;;;;;;3.30;2.30;;;24.70;55.00;;;;;;222862;1264;25313;-60
2023/05/02 03:34:21;;;;;;;2.60;2.40;;;24.70;55.30;;;;;;222849;1260;22611;-59
2023/05/02 03:39:27;;;;;;;3.30;2.80;;;24.60;55.80;;;;;;222927;1266;22722;-60
2023/05/02 03:44:31;;;;;;;3.00;2.40;;;24.60;55.40;;;;;;221834;1261;22519;-61
2023/05/02 03:49:35;;;;;;;3.70;3.20;;;24.60;56.20;;;;;;221878;1266;25224;-60
2023/05/02 03:54:42;;;;;;;3.40;3.00;;;24.50;55.90;;;;;;221762;1270;26663;-59
2023/05/02 03:59:47;;;;;;;2.70;2.50;;;24.50;56.00;;;;;;222136;1261;22606;-59
2023/05/02 04:04:58;;;;;;;2.60;2.40;;;24.30;56.10;;;;;;221830;1270;25507;-60
2023/05/02 04:10:03;;;;;;;2.40;2.30;;;24.30;56.00;;;;;;222030;1270;23886;-60
2023/05/02 04:15:11;;;;;;;2.60;2.40;;;24.40;55.40;;;;;;222918;1264;22624;-62
2023/05/02 04:20:16;;;;;;;2.80;2.60;;;24.30;56.90;;;;;;223370;1262;22799;-61
2023/05/02 04:25:24;;;;;;;2.70;2.50;;;24.30;56.60;;;;;;222658;1269;24362;-59
2023/05/02 04:30:31;;;;;;;2.60;2.40;;;24.20;56.40;;;;;;222724;1264;22505;-58
2023/05/02 04:35:41;;;;;;;2.10;2.00;;;24.10;56.60;;;;;;222803;1263;22632;-57
2023/05/02 04:40:51;;;;;;;2.60;2.40;;;24.10;57.00;;;;;;222986;1269;24180;-58
2023/05/02 04:46:01;;;;;;;2.70;2.50;;;24.00;56.40;;;;;;223154;1254;22631;-60
2023/05/02 04:51:13;;;;;;;2.50;2.30;;;24.00;56.50;;;;;;222600;1264;22670;-61
2023/05/02 04:56:22;;;;;;;2.40;2.20;;;23.90;56.60;;;;;;222811;1257;25459;-60
2023/05/02 05:01:28;;;;;;;2.20;2.10;;;23.80;56.90;;;;;;222589;1267;23117;-59
2023/05/02 05:06:36;;;;;;;2.80;2.50;;;23.80;57.00;;;;;;222365;1266;24295;-59
2023/05/02 05:11:45;;;;;;;2.60;2.40;;;23.70;57.00;;;;;;222512;1254;22582;-60
2023/05/02 05:16:50;;;;;;;2.50;2.30;;;23.70;56.90;;;;;;222633;1254;25685;-62
2023/05/02 05:21:55;;;;;;;2.70;2.50;;;23.70;57.00;;;;;;222766;1261;25207;-60
2023/05/02 05:27:00;;;;;;;2.40;2.20;;;23.70;57.10;;;;;;222651;1266;25394;-58
2023/05/02 05:32:05;;;;;;;2.70;2.50;;;23.60;57.10;;;;;;222620;1254;24225;-59
2023/05/02 05:37:10;;;;;;;2.10;2.00;;;23.50;57.50;;;;;;222855;1264;24046;-60
2023/05/02 05:42:17;;;;;;;4.80;2.10;;;23.50;57.30;;;;;;222924;1257;22521;-61
2023/05/02 05:47:24;;;;;;;3.80;2.30;;;23.60;57.60;;;;;;222395;1263;25745;-57
2023/05/02 05:52:29;;;;;;;2.10;2.00;;;23.50;57.40;;;;;;222825;1267;23975;-58
2023/05/02 05:57:35;;;;;;;4.10;2.80;;;23.50;57.50;;;;;;222605;1264;22526;-60
2023/05/02 06:02:40;;;;;;;2.20;2.10;;;23.50;57.40;;;;;;222509;1258;22609;-59
2023/05/02 06:07:50;;;;;;;2.40;2.20;;;23.50;57.60;;;;;;222489;1260;22640;-59
2023/05/02 06:12:54;;;;;;;2.30;2.20;;;23.50;57.50;;;;;;222335;1266;24299;-60
2023/05/02 06:18:03;;;;;;;2.50;2.30;;;23.50;57.60;;;;;;222406;1263;24279;-60
2023/05/02 06:23:07;;;;;;;2.30;2.10;;;23.50;57.50;;;;;;222609;1263;24216;-58
2023/05/02 06:28:13;;;;;;;2.30;2.10;;;23.40;57.50;;;;;;222394;1263;25494;-59
2023/05/02 06:33:17;;;;;;;2.20;2.10;;;23.40;57.80;;;;;;222550;1267;23876;-58
2023/05/02 06:38:23;;;;;;;2.70;2.30;;;23.30;57.80;;;;;;222416;1263;24184;-59
2023/05/02 06:43:27;;;;;;;3.20;2.20;;;23.40;57.80;;;;;;222494;1256;25340;-58
2023/05/02 06:48:31;;;;;;;4.80;2.20;;;23.40;57.80;;;;;;222451;1263;24216;-61
2023/05/02 06:53:35;;;;;;;2.70;2.10;;;23.40;57.90;;;;;;222784;1266;23886;-60
2023/05/02 06:58:39;;;;;;;5.30;2.40;;;23.40;58.10;;;;;;222566;1259;22588;-62
2023/05/02 07:03:46;;;;;;;3.80;2.40;;;23.40;58.10;;;;;;222356;1257;22519;-59
2023/05/02 07:08:50;;;;;;;4.80;2.00;;;23.30;58.10;;;;;;222877;1263;22621;-59
2023/05/02 07:13:54;;;;;;;2.70;2.00;;;23.30;58.20;;;;;;222569;1266;22535;-61
2023/05/02 07:19:00;;;;;;;2.30;2.10;;;23.30;58.30;;;;;;222757;1264;22521;-58
2023/05/02 07:24:05;;;;;;;15.70;2.50;;;23.30;58.10;;;;;;222421;1256;22638;-59
2023/05/02 07:29:09;;;;;;;4.50;2.70;;;23.30;58.70;;;;;;222477;1254;23884;-59
2023/05/02 07:34:14;;;;;;;7.00;2.70;;;23.30;58.10;;;;;;222595;1265;24157;-63
2023/05/02 07:39:18;;;;;;;6.50;2.40;;;23.30;58.00;;;;;;222367;1254;24241;-57
2023/05/02 07:44:23;;;;;;;5.90;2.10;;;23.40;57.80;;;;;;222465;1266;25131;-57
2023/05/02 07:49:27;;;;;;;2.70;2.20;;;23.40;57.60;;;;;;222154;1266;22782;-56
2023/05/02 07:54:34;;;;;;;9.60;1.90;;;23.40;57.40;;;;;;222356;1263;22524;-59
2023/05/02 07:59:38;;;;;;;4.20;2.30;;;23.40;57.60;;;;;;222764;1263;22507;-58
2023/05/02 08:04:42;;;;;;;4.70;1.90;;;23.40;57.40;;;;;;222444;1264;24362;-61
2023/05/02 08:09:47;;;;;;;7.30;2.20;;;23.50;58.10;;;;;;222190;1247;23146;-59
2023/05/02 08:14:52;;;;;;;5.20;2.60;;;23.60;57.80;;;;;;222542;1259;23937;-60
2023/05/02 08:19:56;;;;;;;12.30;2.40;;;23.70;58.00;;;;;;222262;1256;24349;-59
2023/05/02 08:25:02;;;;;;;4.60;2.50;;;23.50;58.00;;;;;;222258;1266;25445;-59
2023/05/02 08:30:07;;;;;;;18.20;2.90;;;23.50;58.30;;;;;;222389;1263;22636;-59
2023/05/02 08:35:11;;;;;;;3.80;3.00;;;23.70;59.30;;;;;;222365;1263;23922;-59
2023/05/02 08:40:16;;;;;;;8.60;2.70;;;23.60;59.00;;;;;;222309;1267;24469;-60
2023/05/02 08:45:44;;;;;;;3.50;2.30;;;23.60;59.50;;;;;;222223;1263;25376;-61
2023/05/02 08:50:52;;;;;;;6.00;2.40;;;23.80;59.10;;;;;;222308;1269;25324;-59
2023/05/02 08:55:58;;;;;;;5.70;2.20;;;23.70;59.30;;;;;;222693;1263;22517;-54
2023/05/02 09:01:20;;;;;;;4.00;2.20;;;23.80;59.10;;;;;;222480;1264;24199;-48
2023/05/02 09:06:27;;;;;;;3.00;2.50;;;23.90;58.50;;;;;;222700;1264;25284;-51
2023/05/02 09:11:31;;;;;;;6.80;2.70;;;23.80;58.90;;;;;;222431;1266;22523;-52
2023/05/02 09:16:39;;;;;;;4.70;2.20;;;23.90;58.50;;;;;;222847;1254;22520;-51
2023/05/02 09:21:43;;;;;;;3.10;2.10;;;23.80;58.70;;;;;;222614;1260;24671;-51
2023/05/02 09:27:05;;;;;;;14.40;2.50;;;23.90;58.40;;;;;;222266;1263;24183;-49
2023/05/02 09:32:09;;;;;;;8.00;2.70;;;23.80;58.70;;;;;;222570;1263;24196;-51
2023/05/02 09:37:33;;;;;;;4.50;3.40;;;23.90;58.60;;;;;;222374;1259;22721;-48
2023/05/02 09:42:37;;;;;;;5.80;2.70;;;23.90;58.60;;;;;;222710;1263;22637;-50
2023/05/02 09:47:43;;;;;;;7.60;3.10;;;23.80;58.30;;;;;;222443;1266;22507;-50
2023/05/02 09:53:01;;;;;;;3.80;2.90;;;23.80;57.00;;;;;;222425;1260;24352;-52
2023/05/02 09:58:05;;;;;;;6.20;2.80;;;23.80;56.70;;;;;;222530;1255;23359;-49
2023/05/02 10:03:10;;;;;;;6.50;3.20;;;23.80;57.00;;;;;;222450;1251;22759;-53
2023/05/02 10:08:17;;;;;;;7.30;2.50;;;23.80;57.10;;;;;;222270;1254;24170;-52
2023/05/02 10:13:26;;;;;;;10.10;3.00;;;23.70;57.10;;;;;;222388;1266;23155;-52
2023/05/02 10:18:40;;;;;;;4.40;2.70;;;23.70;57.40;;;;;;223011;1259;24394;-54
2023/05/02 10:23:44;;;;;;;8.40;2.80;;;23.90;57.80;;;;;;222013;1247;22567;-51
2023/05/02 10:28:52;;;;;;;3.60;2.40;;;23.90;58.20;;;;;;222307;1263;22909;-49
2023/05/02 10:33:58;;;;;;;9.20;3.20;;;23.80;58.70;;;;;;222712;1257;25618;-51
2023/05/02 10:39:03;;;;;;;9.20;3.00;;;23.90;58.50;;;;;;222979;1256;22511;-49
2023/05/02 10:44:07;;;;;;;5.50;2.80;;;23.80;58.60;;;;;;222302;1269;22520;-53
2023/05/02 10:49:14;;;;;;;8.30;3.00;;;23.80;58.70;;;;;;222440;1263;22665;-51
2023/05/02 10:54:18;;;;;;;7.70;2.60;;;23.80;58.50;;;;;;222493;1266;25374;-49
2023/05/02 10:59:27;;;;;;;6.60;2.60;;;23.80;58.90;;;;;;222953;1256;25358;-53
2023/05/02 11:04:58;;;;;;;6.80;2.50;;;23.80;58.70;;;;;;222249;1262;24238;-51
2023/05/02 11:10:19;;;;;;;6.90;2.90;;;23.90;58.50;;;;;;222547;1263;24213;-50
2023/05/02 11:15:29;;;;;;;5.90;2.80;;;23.90;58.50;;;;;;222864;1258;24225;-51
2023/05/02 11:20:34;;;;;;;5.30;2.50;;;23.90;58.50;;;;;;222670;1263;22807;-54
2023/05/02 11:25:44;;;;;;;14.00;2.60;;;23.90;58.30;;;;;;222838;1263;23947;-52
2023/05/02 11:30:49;;;;;;;4.80;2.90;;;24.00;57.90;;;;;;222505;1266;24259;-55
2023/05/02 11:35:55;;;;;;;6.90;2.80;;;24.00;58.00;;;;;;222540;1259;24697;-54
2023/05/02 11:41:01;;;;;;;9.10;3.20;;;24.00;58.30;;;;;;222142;1256;25473;-56
2023/05/02 11:46:06;;;;;;;8.10;3.70;;;24.00;57.90;;;;;;222466;1263;22517;-57
2023/05/02 11:51:10;;;;;;;3.80;2.40;;;24.10;58.10;;;;;;222474;1265;22636;-57
2023/05/02 11:56:15;;;;;;;5.40;2.80;;;24.10;57.80;;;;;;222387;1264;22595;-60
2023/05/02 12:01:22;;;;;;;4.50;2.70;;;24.10;57.60;;;;;;222526;1263;24210;-57
2023/05/02 12:06:26;;;;;;;5.80;2.80;;;24.10;57.80;;;;;;222580;1262;22514;-59
2023/05/02 12:11:32;;;;;;;7.90;2.70;;;24.20;57.30;;;;;;222481;1250;25262;-52
2023/05/02 12:16:36;;;;;;;11.60;3.10;;;24.20;57.40;;;;;;222513;1267;22583;-52
2023/05/02 12:21:41;;;;;;;4.50;2.90;;;24.10;58.40;;;;;;222567;1262;22527;-52
2023/05/02 12:26:46;;;;;;;9.90;2.60;;;24.30;57.70;;;;;;222532;1263;24164;-54
2023/05/02 12:31:50;;;;;;;10.00;2.50;;;24.20;57.70;;;;;;222358;1255;25448;-53
2023/05/02 12:36:55;;;;;;;6.50;2.90;;;24.20;57.50;;;;;;222349;1266;22508;-57
2023/05/02 12:42:10;;;;;;;7.00;2.60;;;24.20;57.40;;;;;;221954;1266;22507;-53
2023/05/02 12:47:15;;;;;;;6.40;3.30;;;24.10;57.20;;;;;;222328;1262;22596;-55
2023/05/02 12:52:48;;;;;;;3.90;2.60;;;24.10;56.90;;;;;;222386;1254;22635;-50
2023/05/02 12:58:12;;;;;;;7.90;3.80;;;24.10;57.30;;;;;;221707;1267;22511;-54
2023/05/02 13:03:16;;;;;;;8.40;2.80;;;24.10;57.30;;;;;;222066;1266;22524;-57
2023/05/02 13:08:21;;;;;;;3.20;2.70;;;23.90;57.50;;;;;;222259;1266;22773;-54
2023/05/02 13:13:28;;;;;;;2.90;2.70;;;23.90;57.20;;;;;;222063;1266;22589;-51
2023/05/02 13:18:33;;;;;;;3.00;2.60;;;23.90;57.50;;;;;;222117;1266;22692;-53
2023/05/02 13:23:38;;;;;;;5.00;2.70;;;23.90;57.30;;;;;;222189;1265;25387;-52
2023/05/02 13:28:43;;;;;;;4.50;2.60;;;23.80;57.00;;;;;;222713;1263;24251;-54
2023/05/02 13:33:48;;;;;;;7.50;3.00;;;23.90;57.00;;;;;;222496;1259;25551;-55
2023/05/02 13:38:54;;;;;;;4.50;2.90;;;23.90;56.90;;;;;;222742;1259;22579;-54
2023/05/02 13:44:00;;;;;;;6.20;3.10;;;23.80;57.30;;;;;;222472;1265;22511;-52
2023/05/02 13:49:05;;;;;;;3.90;2.50;;;23.80;56.80;;;;;;222707;1253;22511;-55
2023/05/02 13:54:09;;;;;;;6.20;2.80;;;23.80;56.80;;;;;;222564;1263;22555;-55
2023/05/02 13:59:13;;;;;;;4.70;2.30;;;23.80;57.20;;;;;;222512;1253;25265;-54
2023/05/02 14:04:18;;;;;;;3.60;2.50;;;23.80;57.00;;;;;;222523;1263;22507;-54
2023/05/02 14:09:25;;;;;;;3.10;2.60;;;23.70;57.20;;;;;;222564;1261;22520;-54
2023/05/02 14:14:29;;;;;;;4.00;2.30;;;23.70;56.90;;;;;;222196;1257;276188;-53
2023/05/02 14:19:34;;;;;;;3.80;2.70;;;23.70;56.80;;;;;;222595;1253;22522;-53
2023/05/02 14:24:40;;;;;;;3.80;2.50;;;23.80;56.80;;;;;;222594;1257;22522;-55
2023/05/02 14:29:46;;;;;;;3.00;2.50;;;23.70;56.70;;;;;;221724;1268;23921;-56
2023/05/02 14:34:50;;;;;;;3.00;2.60;;;23.80;56.70;;;;;;221621;1266;25475;-54
2023/05/02 14:39:55;;;;;;;2.70;2.50;;;23.80;56.60;;;;;;221653;1260;22643;-53
2023/05/02 14:45:01;;;;;;;4.10;2.50;;;23.80;56.60;;;;;;221800;1266;22477;-55
2023/05/02 14:50:06;;;;;;;4.90;2.90;;;23.80;56.60;;;;;;221732;1258;22536;-52
2023/05/02 14:55:10;;;;;;;9.80;2.90;;;23.80;56.40;;;;;;221751;1269;24289;-58
2023/05/02 15:00:17;;;;;;;14.40;3.30;;;23.80;56.90;;;;;;222302;1258;22522;-58
2023/05/02 15:05:21;;;;;;;7.90;2.80;;;23.80;57.20;;;;;;222810;1263;22746;-57
2023/05/02 15:10:26;;;;;;;5.50;3.00;;;23.90;58.20;;;;;;222380;1266;25878;-58
2023/05/02 15:15:30;;;;;;;4.20;2.90;;;24.10;58.80;;;;;;222545;1263;24231;-57
2023/05/02 15:20:35;;;;;;;7.90;3.10;;;24.10;59.50;;;;;;223045;1267;24362;-58
2023/05/02 15:25:39;;;;;;;7.10;3.20;;;24.10;58.40;;;;;;222748;1268;24287;-59
2023/05/02 15:30:45;;;;;;;8.90;3.10;;;24.00;59.20;;;;;;222943;1267;25562;-56
2023/05/02 15:35:54;;;;;;;6.90;2.60;;;24.10;59.80;;;;;;222533;1268;22503;-54
2023/05/02 15:40:59;;;;;;;12.80;3.20;;;24.20;59.40;;;;;;224117;1263;25469;-51
2023/05/02 15:46:05;;;;;;;5.30;3.20;;;24.20;59.60;;;;;;222759;1254;25539;-56
2023/05/02 15:51:10;;;;;;;22.40;6.00;;;24.00;59.80;;;;;;222793;1266;25258;-52
2023/05/02 15:56:15;;;;;;;14.60;4.10;;;23.90;59.10;;;;;;222715;1250;25384;-53
2023/05/02 16:01:22;;;;;;;15.50;4.50;;;23.90;59.10;;;;;;222603;1247;24301;-52
2023/05/02 16:06:27;;;;;;;16.50;3.70;;;23.90;58.60;;;;;;222736;1266;24535;-53
2023/05/02 16:11:32;;;;;;;8.00;3.80;;;23.80;58.10;;;;;;222823;1266;24219;-55
2023/05/02 16:16:37;;;;;;;14.00;4.70;;;23.80;57.90;;;;;;222412;1266;22514;-56
2023/05/02 16:21:42;;;;;;;18.50;4.30;;;23.80;58.60;;;;;;222414;1264;24239;-59
2023/05/02 16:26:46;;;;;;;16.30;4.50;;;23.80;58.10;;;;;;221925;1261;24346;-53
2023/05/02 16:31:50;;;;;;;13.90;3.60;;;23.80;57.80;;;;;;222515;1263;24996;-56
2023/05/02 16:36:55;;;;;;;13.60;4.40;;;24.00;57.60;;;;;;222166;1264;23000;-58
2023/05/02 16:42:04;;;;;;;16.30;3.80;;;24.10;57.10;;;;;;222344;1264;22510;-59
2023/05/02 16:47:08;;;;;;;14.30;3.80;;;24.20;57.50;;;;;;222127;1263;22687;-61
2023/05/02 16:52:13;;;;;;;13.70;3.30;;;24.20;57.00;;;;;;222373;1245;23913;-60
2023/05/02 16:57:18;;;;;;;10.10;3.80;;;24.10;57.30;;;;;;222442;1247;24228;-59
2023/05/02 17:02:23;;;;;;;8.20;3.60;;;24.10;57.30;;;;;;222448;1266;25468;-59
2023/05/02 17:07:27;;;;;;;10.00;3.50;;;24.10;57.30;;;;;;222516;1254;24167;-59
2023/05/02 17:12:32;;;;;;;7.40;3.40;;;24.10;57.50;;;;;;222389;1263;22514;-59
2023/05/02 17:17:36;;;;;;;8.40;3.40;;;24.00;57.60;;;;;;222592;1265;22531;-60
2023/05/02 17:22:43;;;;;;;6.00;3.60;;;24.00;57.60;;;;;;222668;1266;22665;-59
2023/05/02 17:27:47;;;;;;;10.20;3.30;;;24.00;57.60;;;;;;222598;1264;24172;-60
2023/05/02 17:32:51;;;;;;;7.30;2.70;;;24.00;57.60;;;;;;222519;1254;25933;-59
2023/05/02 17:37:56;;;;;;;5.30;3.00;;;23.90;57.70;;;;;;222870;1263;22542;-60
2023/05/02 17:43:00;;;;;;;5.60;3.50;;;23.90;57.70;;;;;;222573;1263;22635;-63
2023/05/02 17:48:05;;;;;;;3.70;2.90;;;23.90;57.80;;;;;;222476;1263;24161;-60
2023/05/02 17:53:10;;;;;;;7.20;3.00;;;23.80;57.80;;;;;;222684;1263;25380;-59
2023/05/02 17:58:14;;;;;;;5.20;2.80;;;23.80;58.10;;;;;;222649;1261;22521;-59
2023/05/02 18:03:20;;;;;;;6.00;3.20;;;23.80;57.80;;;;;;222916;1254;22519;-60
2023/05/02 18:08:24;;;;;;;5.90;3.20;;;23.80;58.00;;;;;;222732;1269;22642;-58
2023/05/02 18:13:29;;;;;;;9.70;3.30;;;23.80;58.00;;;;;;222859;1266;23877;-62
2023/05/02 18:18:35;;;;;;;3.10;2.90;;;23.70;57.80;;;;;;222635;1263;22633;-55
2023/05/02 18:23:40;;;;;;;5.80;3.10;;;23.70;57.90;;;;;;222542;1258;25194;-52
2023/05/02 18:28:51;;;;;;;8.90;2.90;;;23.80;57.20;;;;;;222721;1263;24405;-54
2023/05/02 18:33:57;;;;;;;7.60;3.50;;;23.90;56.60;;;;;;222922;1259;24024;-50
2023/05/02 18:39:03;;;;;;;7.60;3.70;;;24.00;57.20;;;;;;222744;1266;24342;-53
2023/05/02 18:44:09;;;;;;;13.10;10.20;;;24.00;56.70;;;;;;222736;1269;24143;-53
2023/05/02 18:49:13;;;;;;;23.20;20.80;;;24.00;57.50;;;;;;222784;1260;23143;-50
2023/05/02 18:54:26;;;;;;;20.90;17.70;;;24.10;58.10;;;;;;222563;1264;22515;-50
2023/05/02 18:59:32;;;;;;;18.10;16.20;;;24.00;57.90;;;;;;222613;1263;22517;-52
2023/05/02 19:04:39;;;;;;;20.10;16.00;;;24.00;58.20;;;;;;222927;1264;25262;-54
2023/05/02 19:09:44;;;;;;;16.50;15.00;;;24.10;57.90;;;;;;223087;1266;25416;-57
2023/05/02 19:14:51;;;;;;;17.30;13.90;;;24.00;57.60;;;;;;222683;1261;22512;-55
2023/05/02 19:19:56;;;;;;;15.50;12.90;;;24.10;57.60;;;;;;222687;1263;24243;-56
2023/05/02 19:25:03;;;;;;;19.00;14.40;;;24.10;57.40;;;;;;222658;1260;24202;-59
2023/05/02 19:30:12;;;;;;;32.30;20.40;;;24.10;57.60;;;;;;222227;1266;22534;-57
2023/05/02 19:35:19;;;;;;;56.20;32.10;;;23.90;57.70;;;;;;222200;1267;22517;-54
2023/05/02 19:40:25;;;;;;;178.70;88.60;;;24.00;57.30;;;;;;222268;1269;22515;-56
2023/05/02 19:45:30;;;;;;;161.00;80.70;;;23.90;58.20;;;;;;222266;1262;22511;-56
2023/05/02 19:50:36;;;;;;;118.70;61.00;;;23.80;58.20;;;;;;222536;1261;22530;-56
2023/05/02 19:55:41;;;;;;;114.60;56.20;;;23.90;57.40;;;;;;222559;1265;24156;-56
2023/05/02 20:00:48;;;;;;;107.60;53.30;;;24.00;58.30;;;;;;222736;1266;22624;-58
2023/05/02 20:05:57;;;;;;;;;;;23.90;57.70;;;;;;222769;1263;22479;-53
2023/05/02 20:11:06;;;;;;;97.60;50.90;;;24.00;58.10;;;;;;222176;1264;22645;-58
2023/05/02 20:16:12;;;;;;;85.50;44.10;;;23.90;58.50;;;;;;222996;1266;25576;-55
2023/05/02 20:21:17;;;;;;;89.60;45.40;;;23.70;58.30;;;;;;222426;1259;22510;-55
2023/05/02 20:26:23;;;;;;;89.00;45.00;;;23.70;58.50;;;;;;222264;1266;22525;-52
2023/05/02 20:31:27;;;;;;;74.70;41.10;;;23.70;57.80;;;;;;222365;1263;25412;-52
2023/05/02 20:36:32;;;;;;;78.20;40.70;;;23.70;58.00;;;;;;222314;1265;24228;-53
2023/05/02 20:41:37;;;;;;;71.30;40.60;;;23.60;58.00;;;;;;222422;1269;22521;-54
2023/05/02 20:46:41;;;;;;;69.20;39.00;;;23.60;58.00;;;;;;222794;1263;22527;-52
2023/05/02 20:51:46;;;;;;;78.60;41.40;;;23.60;58.20;;;;;;222443;1262;22639;-51
2023/05/02 20:56:50;;;;;;;72.80;40.00;;;23.70;59.00;;;;;;221657;1269;24017;-53
2023/05/02 21:01:55;;;;;;;76.60;41.40;;;23.70;59.80;;;;;;221402;1273;22511;-52
2023/05/02 21:07:02;;;;;;;71.60;39.70;;;23.80;64.60;;;;;;221682;1269;22519;-51
2023/05/02 21:12:06;;;;;;;69.40;37.50;;;23.80;63.50;;;;;;221753;1260;22529;-51
2023/05/02 21:17:10;;;;;;;63.80;35.60;;;23.70;63.80;;;;;;221595;1265;22520;-53
2023/05/02 21:22:15;;;;;;;68.90;37.60;;;23.80;63.50;;;;;;221567;1267;22532;-55
2023/05/02 21:27:21;;;;;;;60.40;34.40;;;23.70;63.80;;;;;;221819;1257;22521;-57
2023/05/02 21:32:26;;;;;;;56.50;34.00;;;23.70;62.80;;;;;;221867;1263;22626;-52
2023/05/02 21:37:30;;;;;;;63.10;33.50;;;23.80;62.80;;;;;;222398;1256;22733;-48
2023/05/02 21:42:35;;;;;;;55.70;32.20;;;23.80;62.60;;;;;;222335;1269;22517;-52
2023/05/02 21:47:39;;;;;;;67.10;33.80;;;23.70;62.60;;;;;;222658;1269;24278;-53
2023/05/02 21:52:46;;;;;;;50.80;30.50;;;23.70;62.60;;;;;;222521;1266;22524;-53
2023/05/02 21:57:51;;;;;;;55.40;30.60;;;23.70;62.60;;;;;;222279;1260;23950;-54
2023/05/02 22:02:55;;;;;;;47.40;29.40;;;23.70;62.40;;;;;;222462;1269;22617;-55
2023/05/02 22:08:00;;;;;;;51.60;30.90;;;23.60;62.80;;;;;;222485;1266;22521;-52
2023/05/02 22:13:08;;;;;;;47.70;29.80;;;23.50;62.90;;;;;;222858;1248;26460;-59
2023/05/02 22:18:14;;;;;;;54.70;28.50;;;23.50;62.90;;;;;;222517;1263;25492;-55
2023/05/02 22:23:18;;;;;;;50.10;29.60;;;23.50;63.10;;;;;;222416;1253;24304;-52
2023/05/02 22:28:22;;;;;;;48.10;29.40;;;23.60;64.00;;;;;;222726;1266;22641;-51
2023/05/02 22:33:26;;;;;;;48.10;30.80;;;23.60;63.30;;;;;;222709;1263;22567;-49
2023/05/02 22:38:30;;;;;;;49.20;28.30;;;23.70;63.00;;;;;;222514;1264;22595;-50
2023/05/02 22:43:35;;;;;;;42.80;27.40;;;23.60;63.40;;;;;;222669;1257;22537;-54
2023/05/02 22:48:39;;;;;;;52.00;28.20;;;23.60;62.80;;;;;;222637;1265;22565;-54
2023/05/02 22:53:44;;;;;;;42.70;25.80;;;23.60;63.30;;;;;;222987;1269;22513;-52
2023/05/02 22:58:49;;;;;;;44.70;26.70;;;23.60;62.80;;;;;;222846;1264;24360;-56
2023/05/02 23:03:53;;;;;;;39.70;25.80;;;23.60;62.50;;;;;;222901;1260;24301;-49
2023/05/02 23:08:57;;;;;;;41.10;25.10;;;23.60;62.50;;;;;;222786;1267;25436;-52
2023/05/02 23:14:01;;;;;;;41.20;24.90;;;23.50;62.50;;;;;;222745;1266;24390;-54
2023/05/02 23:19:05;;;;;;;38.20;24.10;;;23.40;62.50;;;;;;222765;1265;22532;-54
2023/05/02 23:24:10;;;;;;;36.10;23.70;;;23.40;62.70;;;;;;223178;1264;22605;-55
2023/05/02 23:29:14;;;;;;;34.60;22.60;;;23.40;62.60;;;;;;222688;1248;23904;-56
2023/05/02 23:34:20;;;;;;;34.60;22.40;;;23.40;62.10;;;;;;222453;1263;22611;-53
2023/05/02 23:39:25;;;;;;;39.10;23.40;;;23.40;62.20;;;;;;222719;1264;24150;-52
2023/05/02 23:44:30;;;;;;;37.90;23.50;;;23.30;62.20;;;;;;222880;1261;24401;-56
2023/05/02 23:49:35;;;;;;;33.60;22.10;;;23.40;62.00;;;;;;222726;1264;22623;-53
2023/05/02 23:54:40;;;;;;;32.70;20.50;;;23.40;62.30;;;;;;223207;1264;24222;-53
2023/05/02 23:59:44;;;;;;;35.60;20.50;;;23.30;62.00;;;;;;222473;1264;22517;-54
